sensor_id;sensor_type;location;lat;lon;timestamp;temperature;humidity
21149;DHT22;10732;51.472;6.466;2023-02-17T00:02:15;9.90;99.90
21149;DHT22;10732;51.472;6.466;2023-02-17T00:04:41;9.90;99.90
21149;DHT22;10732;51.472;6.466;2023-02-17T00:07:06;9.80;99.90
21149;DHT22;10732;51.472;6.466;2023-02-17T00:09:32;9.80;99.90
21149;DHT22;10732;51.472;6.466;2023-02-17T00:11:57;9.80;99.90
21149;DHT22;10732;51.472;6.466;2023-02-17T00:14:23;9.90;99.90
21149;DHT22;10732;51.472;6.466;2023-02-17T00:16:48;9.90;99.90
21149;DHT22;10732;51.472;6.466;2023-02-17T00:19:14;9.90;99.90
21149;DHT22;10732;51.472;6.466;2023-02-17T00:21:59;9.90;99.90
21149;DHT22;10732;51.472;6.466;2023-02-17T00:24:27;9.90;99.90
21149;DHT22;10732;51.472;6.466;2023-02-17T00:26:53;9.90;99.90
21149;DHT22;10732;51.472;6.466;2023-02-17T00:29:19;9.80;99.90
21149;DHT22;10732;51.472;6.466;2023-02-17T00:31:45;9.80;99.90
21149;DHT22;10732;51.472;6.466;2023-02-17T00:34:10;9.80;99.90
21149;DHT22;10732;51.472;6.466;2023-02-17T00:36:36;9.80;99.90
21149;DHT22;10732;51.472;6.466;2023-02-17T00:39:02;9.80;99.90
21149;DHT22;10732;51.472;6.466;2023-02-17T00:41:29;9.80;99.90
21149;DHT22;10732;51.472;6.466;2023-02-17T00:43:55;9.80;99.90
21149;DHT22;10732;51.472;6.466;2023-02-17T00:46:21;9.80;99.90
21149;DHT22;10732;51.472;6.466;2023-02-17T00:48:47;9.80;99.90
21149;DHT22;10732;51.472;6.466;2023-02-17T00:51:14;9.80;99.90
21149;DHT22;10732;51.472;6.466;2023-02-17T00:53:40;9.80;99.90
21149;DHT22;10732;51.472;6.466;2023-02-17T00:56:07;9.80;99.90
21149;DHT22;10732;51.472;6.466;2023-02-17T00:58:33;9.90;99.90
21149;DHT22;10732;51.472;6.466;2023-02-17T01:00:58;9.90;99.90
21149;DHT22;10732;51.472;6.466;2023-02-17T01:03:25;9.90;99.90
21149;DHT22;10732;51.472;6.466;2023-02-17T01:05:51;9.90;99.90
21149;DHT22;10732;51.472;6.466;2023-02-17T01:08:17;10.00;99.90
21149;DHT22;10732;51.472;6.466;2023-02-17T01:10:44;10.00;99.90
21149;DHT22;10732;51.472;6.466;2023-02-17T01:13:11;10.00;99.90
21149;DHT22;10732;51.472;6.466;2023-02-17T01:15:45;10.00;99.90
21149;DHT22;10732;51.472;6.466;2023-02-17T01:18:12;10.00;99.90
21149;DHT22;10732;51.472;6.466;2023-02-17T01:20:38;10.00;99.90
21149;DHT22;10732;51.472;6.466;2023-02-17T01:23:04;10.00;99.90
21149;DHT22;10732;51.472;6.466;2023-02-17T01:25:30;10.00;99.90
21149;DHT22;10732;51.472;6.466;2023-02-17T01:27:56;9.90;99.90
21149;DHT22;10732;51.472;6.466;2023-02-17T01:30:22;9.90;99.90
21149;DHT22;10732;51.472;6.466;2023-02-17T01:32:48;9.90;99.90
21149;DHT22;10732;51.472;6.466;2023-02-17T01:35:13;9.90;99.90
21149;DHT22;10732;51.472;6.466;2023-02-17T01:37:39;9.90;99.90
21149;DHT22;10732;51.472;6.466;2023-02-17T01:40:05;10.00;99.90
21149;DHT22;10732;51.472;6.466;2023-02-17T01:42:31;10.00;99.90
21149;DHT22;10732;51.472;6.466;2023-02-17T01:47:42;10.00;99.90
21149;DHT22;10732;51.472;6.466;2023-02-17T01:50:08;10.00;99.90
21149;DHT22;10732;51.472;6.466;2023-02-17T01:52:34;10.00;99.90
21149;DHT22;10732;51.472;6.466;2023-02-17T01:55:07;9.90;99.90
21149;DHT22;10732;51.472;6.466;2023-02-17T01:57:37;9.90;99.90
21149;DHT22;10732;51.472;6.466;2023-02-17T02:00:07;10.00;99.90
21149;DHT22;10732;51.472;6.466;2023-02-17T02:02:34;10.00;99.90
21149;DHT22;10732;51.472;6.466;2023-02-17T02:04:59;10.00;99.90
21149;DHT22;10732;51.472;6.466;2023-02-17T02:07:39;10.00;99.90
21149;DHT22;10732;51.472;6.466;2023-02-17T02:10:06;10.00;99.90
21149;DHT22;10732;51.472;6.466;2023-02-17T02:12:34;10.00;99.90
21149;DHT22;10732;51.472;6.466;2023-02-17T02:15:12;10.00;99.90
21149;DHT22;10732;51.472;6.466;2023-02-17T02:22:57;10.00;99.90
21149;DHT22;10732;51.472;6.466;2023-02-17T02:34:32;10.00;99.90
21149;DHT22;10732;51.472;6.466;2023-02-17T02:36:44;9.90;99.90
21149;DHT22;10732;51.472;6.466;2023-02-17T02:39:16;10.00;99.90
21149;DHT22;10732;51.472;6.466;2023-02-17T02:41:45;10.00;99.90
21149;DHT22;10732;51.472;6.466;2023-02-17T02:44:16;10.00;99.90
21149;DHT22;10732;51.472;6.466;2023-02-17T02:46:42;10.00;99.90
21149;DHT22;10732;51.472;6.466;2023-02-17T02:49:07;10.00;99.90
21149;DHT22;10732;51.472;6.466;2023-02-17T02:51:37;10.00;99.90
21149;DHT22;10732;51.472;6.466;2023-02-17T02:54:26;10.00;99.90
21149;DHT22;10732;51.472;6.466;2023-02-17T02:57:03;10.00;99.90
21149;DHT22;10732;51.472;6.466;2023-02-17T03:02:45;10.10;99.90
21149;DHT22;10732;51.472;6.466;2023-02-17T03:05:41;10.00;99.90
21149;DHT22;10732;51.472;6.466;2023-02-17T03:08:14;10.10;99.90
21149;DHT22;10732;51.472;6.466;2023-02-17T03:10:49;10.10;99.90
21149;DHT22;10732;51.472;6.466;2023-02-17T03:13:16;10.10;99.90
21149;DHT22;10732;51.472;6.466;2023-02-17T03:15:42;10.10;99.90
21149;DHT22;10732;51.472;6.466;2023-02-17T03:18:08;10.10;99.90
21149;DHT22;10732;51.472;6.466;2023-02-17T03:20:36;10.10;99.90
21149;DHT22;10732;51.472;6.466;2023-02-17T03:23:03;10.10;99.90
21149;DHT22;10732;51.472;6.466;2023-02-17T03:25:29;10.10;99.90
21149;DHT22;10732;51.472;6.466;2023-02-17T03:27:55;10.10;99.90
21149;DHT22;10732;51.472;6.466;2023-02-17T03:30:21;10.10;99.90
21149;DHT22;10732;51.472;6.466;2023-02-17T03:32:46;10.20;99.90
21149;DHT22;10732;51.472;6.466;2023-02-17T03:35:12;10.10;99.90
21149;DHT22;10732;51.472;6.466;2023-02-17T03:37:38;10.10;99.90
21149;DHT22;10732;51.472;6.466;2023-02-17T03:40:05;10.10;99.90
21149;DHT22;10732;51.472;6.466;2023-02-17T03:42:30;10.10;99.90
21149;DHT22;10732;51.472;6.466;2023-02-17T03:44:56;10.00;99.90
21149;DHT22;10732;51.472;6.466;2023-02-17T03:47:22;10.00;99.90
21149;DHT22;10732;51.472;6.466;2023-02-17T03:49:47;10.00;99.90
21149;DHT22;10732;51.472;6.466;2023-02-17T03:52:13;10.10;99.90
21149;DHT22;10732;51.472;6.466;2023-02-17T03:54:38;10.10;99.90
21149;DHT22;10732;51.472;6.466;2023-02-17T03:57:04;10.10;99.90
21149;DHT22;10732;51.472;6.466;2023-02-17T03:59:29;10.10;99.90
21149;DHT22;10732;51.472;6.466;2023-02-17T04:01:55;10.10;99.90
21149;DHT22;10732;51.472;6.466;2023-02-17T04:04:20;10.20;99.90
21149;DHT22;10732;51.472;6.466;2023-02-17T04:06:46;10.20;99.90
21149;DHT22;10732;51.472;6.466;2023-02-17T04:09:12;10.20;99.90
21149;DHT22;10732;51.472;6.466;2023-02-17T04:11:37;10.20;99.90
21149;DHT22;10732;51.472;6.466;2023-02-17T04:14:03;10.20;99.90
21149;DHT22;10732;51.472;6.466;2023-02-17T04:16:28;10.30;99.90
21149;DHT22;10732;51.472;6.466;2023-02-17T04:18:54;10.20;99.90
21149;DHT22;10732;51.472;6.466;2023-02-17T04:21:20;10.20;99.90
21149;DHT22;10732;51.472;6.466;2023-02-17T04:23:45;10.20;99.90
21149;DHT22;10732;51.472;6.466;2023-02-17T04:26:11;10.20;99.90
21149;DHT22;10732;51.472;6.466;2023-02-17T04:28:37;10.20;99.90
21149;DHT22;10732;51.472;6.466;2023-02-17T04:31:03;10.20;99.90
21149;DHT22;10732;51.472;6.466;2023-02-17T04:33:29;10.10;99.90
21149;DHT22;10732;51.472;6.466;2023-02-17T04:35:55;10.10;99.90
21149;DHT22;10732;51.472;6.466;2023-02-17T04:38:25;10.10;99.90
21149;DHT22;10732;51.472;6.466;2023-02-17T04:40:52;10.10;99.90
21149;DHT22;10732;51.472;6.466;2023-02-17T04:43:18;10.10;99.90
21149;DHT22;10732;51.472;6.466;2023-02-17T04:45:44;10.20;99.90
21149;DHT22;10732;51.472;6.466;2023-02-17T04:48:09;10.20;99.90
21149;DHT22;10732;51.472;6.466;2023-02-17T04:50:35;10.20;99.90
21149;DHT22;10732;51.472;6.466;2023-02-17T04:53:00;10.20;99.90
21149;DHT22;10732;51.472;6.466;2023-02-17T04:55:26;10.20;99.90
21149;DHT22;10732;51.472;6.466;2023-02-17T04:57:51;10.20;99.90
21149;DHT22;10732;51.472;6.466;2023-02-17T05:00:17;10.20;99.90
21149;DHT22;10732;51.472;6.466;2023-02-17T05:02:43;10.30;99.90
21149;DHT22;10732;51.472;6.466;2023-02-17T05:05:08;10.30;99.90
21149;DHT22;10732;51.472;6.466;2023-02-17T05:07:34;10.30;99.90
21149;DHT22;10732;51.472;6.466;2023-02-17T05:09:59;10.30;99.90
21149;DHT22;10732;51.472;6.466;2023-02-17T05:12:25;10.30;99.90
21149;DHT22;10732;51.472;6.466;2023-02-17T05:14:51;10.30;99.90
21149;DHT22;10732;51.472;6.466;2023-02-17T05:17:16;10.30;99.90
21149;DHT22;10732;51.472;6.466;2023-02-17T05:19:42;10.30;99.90
21149;DHT22;10732;51.472;6.466;2023-02-17T05:22:07;10.30;99.90
21149;DHT22;10732;51.472;6.466;2023-02-17T05:24:33;10.30;99.90
21149;DHT22;10732;51.472;6.466;2023-02-17T05:26:58;10.20;99.90
21149;DHT22;10732;51.472;6.466;2023-02-17T05:29:24;10.30;99.90
21149;DHT22;10732;51.472;6.466;2023-02-17T05:31:49;10.20;99.90
21149;DHT22;10732;51.472;6.466;2023-02-17T05:34:15;10.20;99.90
21149;DHT22;10732;51.472;6.466;2023-02-17T05:36:40;10.20;99.90
21149;DHT22;10732;51.472;6.466;2023-02-17T05:39:06;10.10;99.90
21149;DHT22;10732;51.472;6.466;2023-02-17T05:41:33;10.20;99.90
21149;DHT22;10732;51.472;6.466;2023-02-17T05:43:58;10.20;99.90
21149;DHT22;10732;51.472;6.466;2023-02-17T05:46:24;10.20;99.90
21149;DHT22;10732;51.472;6.466;2023-02-17T05:48:49;10.20;99.90
21149;DHT22;10732;51.472;6.466;2023-02-17T05:51:15;10.20;99.90
21149;DHT22;10732;51.472;6.466;2023-02-17T05:53:43;10.20;99.90
21149;DHT22;10732;51.472;6.466;2023-02-17T05:56:09;10.20;99.90
21149;DHT22;10732;51.472;6.466;2023-02-17T05:58:34;10.20;99.90
21149;DHT22;10732;51.472;6.466;2023-02-17T06:01:00;10.20;99.90
21149;DHT22;10732;51.472;6.466;2023-02-17T06:03:25;10.20;99.90
21149;DHT22;10732;51.472;6.466;2023-02-17T06:05:51;10.20;99.90
21149;DHT22;10732;51.472;6.466;2023-02-17T06:08:17;10.20;99.90
21149;DHT22;10732;51.472;6.466;2023-02-17T06:10:42;10.20;99.90
21149;DHT22;10732;51.472;6.466;2023-02-17T06:13:08;10.20;99.90
21149;DHT22;10732;51.472;6.466;2023-02-17T06:15:34;10.20;99.90
21149;DHT22;10732;51.472;6.466;2023-02-17T06:17:59;10.20;99.90
21149;DHT22;10732;51.472;6.466;2023-02-17T06:20:25;10.20;99.90
21149;DHT22;10732;51.472;6.466;2023-02-17T06:22:50;10.20;99.90
21149;DHT22;10732;51.472;6.466;2023-02-17T06:25:16;10.20;99.90
21149;DHT22;10732;51.472;6.466;2023-02-17T06:27:41;10.20;99.90
21149;DHT22;10732;51.472;6.466;2023-02-17T06:30:09;10.20;99.90
21149;DHT22;10732;51.472;6.466;2023-02-17T06:32:34;10.20;99.90
21149;DHT22;10732;51.472;6.466;2023-02-17T06:35:00;10.20;99.90
21149;DHT22;10732;51.472;6.466;2023-02-17T06:37:26;10.20;99.90
21149;DHT22;10732;51.472;6.466;2023-02-17T06:39:51;10.20;99.90
21149;DHT22;10732;51.472;6.466;2023-02-17T06:42:17;10.10;99.90
21149;DHT22;10732;51.472;6.466;2023-02-17T06:44:42;10.10;99.90
21149;DHT22;10732;51.472;6.466;2023-02-17T06:47:08;10.10;99.90
21149;DHT22;10732;51.472;6.466;2023-02-17T06:49:33;10.10;99.90
21149;DHT22;10732;51.472;6.466;2023-02-17T06:51:59;10.00;99.90
21149;DHT22;10732;51.472;6.466;2023-02-17T06:54:24;10.00;99.90
21149;DHT22;10732;51.472;6.466;2023-02-17T06:56:50;10.10;99.90
21149;DHT22;10732;51.472;6.466;2023-02-17T06:59:15;10.00;99.90
21149;DHT22;10732;51.472;6.466;2023-02-17T07:01:41;10.20;99.90
21149;DHT22;10732;51.472;6.466;2023-02-17T07:04:06;10.30;99.90
21149;DHT22;10732;51.472;6.466;2023-02-17T07:06:32;10.30;99.90
21149;DHT22;10732;51.472;6.466;2023-02-17T07:08:57;10.30;99.90
21149;DHT22;10732;51.472;6.466;2023-02-17T07:11:23;10.50;99.90
21149;DHT22;10732;51.472;6.466;2023-02-17T07:13:49;10.50;99.90
21149;DHT22;10732;51.472;6.466;2023-02-17T07:16:15;10.50;99.90
21149;DHT22;10732;51.472;6.466;2023-02-17T07:18:40;10.60;99.90
21149;DHT22;10732;51.472;6.466;2023-02-17T07:21:08;10.60;99.90
21149;DHT22;10732;51.472;6.466;2023-02-17T07:23:34;10.80;99.90
21149;DHT22;10732;51.472;6.466;2023-02-17T07:26:02;10.90;99.90
21149;DHT22;10732;51.472;6.466;2023-02-17T07:28:28;10.80;99.90
21149;DHT22;10732;51.472;6.466;2023-02-17T07:30:53;10.80;99.90
21149;DHT22;10732;51.472;6.466;2023-02-17T07:33:19;10.80;99.90
21149;DHT22;10732;51.472;6.466;2023-02-17T07:35:44;10.80;99.90
21149;DHT22;10732;51.472;6.466;2023-02-17T07:38:10;10.80;99.90
21149;DHT22;10732;51.472;6.466;2023-02-17T07:40:36;10.80;99.90
21149;DHT22;10732;51.472;6.466;2023-02-17T07:43:01;10.80;99.90
21149;DHT22;10732;51.472;6.466;2023-02-17T07:45:27;10.90;99.90
21149;DHT22;10732;51.472;6.466;2023-02-17T07:47:52;11.00;99.90
21149;DHT22;10732;51.472;6.466;2023-02-17T07:50:18;10.90;99.90
21149;DHT22;10732;51.472;6.466;2023-02-17T07:52:44;10.90;99.90
21149;DHT22;10732;51.472;6.466;2023-02-17T07:55:09;10.90;99.90
21149;DHT22;10732;51.472;6.466;2023-02-17T07:57:35;10.90;99.90
21149;DHT22;10732;51.472;6.466;2023-02-17T08:00:00;10.90;99.90
21149;DHT22;10732;51.472;6.466;2023-02-17T08:02:26;11.00;99.90
21149;DHT22;10732;51.472;6.466;2023-02-17T08:04:51;11.00;99.90
21149;DHT22;10732;51.472;6.466;2023-02-17T08:07:17;11.00;99.90
21149;DHT22;10732;51.472;6.466;2023-02-17T08:09:43;11.00;99.90
21149;DHT22;10732;51.472;6.466;2023-02-17T08:12:27;11.00;99.90
21149;DHT22;10732;51.472;6.466;2023-02-17T08:15:12;11.10;99.90
21149;DHT22;10732;51.472;6.466;2023-02-17T08:17:37;11.30;99.90
21149;DHT22;10732;51.472;6.466;2023-02-17T08:20:04;11.30;99.90
21149;DHT22;10732;51.472;6.466;2023-02-17T08:22:30;11.30;99.90
21149;DHT22;10732;51.472;6.466;2023-02-17T08:24:56;11.30;99.90
21149;DHT22;10732;51.472;6.466;2023-02-17T08:27:22;11.30;99.90
21149;DHT22;10732;51.472;6.466;2023-02-17T08:29:47;11.40;99.90
21149;DHT22;10732;51.472;6.466;2023-02-17T08:32:14;11.40;99.90
21149;DHT22;10732;51.472;6.466;2023-02-17T08:34:40;11.40;99.90
21149;DHT22;10732;51.472;6.466;2023-02-17T08:37:07;11.50;99.90
21149;DHT22;10732;51.472;6.466;2023-02-17T08:39:33;11.60;99.90
21149;DHT22;10732;51.472;6.466;2023-02-17T08:41:59;11.80;99.90
21149;DHT22;10732;51.472;6.466;2023-02-17T08:44:25;11.80;99.90
21149;DHT22;10732;51.472;6.466;2023-02-17T08:46:51;11.80;99.90
21149;DHT22;10732;51.472;6.466;2023-02-17T08:49:21;11.80;99.90
21149;DHT22;10732;51.472;6.466;2023-02-17T08:51:47;11.90;99.90
21149;DHT22;10732;51.472;6.466;2023-02-17T08:54:13;11.70;99.90
21149;DHT22;10732;51.472;6.466;2023-02-17T08:56:39;11.80;99.90
21149;DHT22;10732;51.472;6.466;2023-02-17T08:59:06;11.90;99.90
21149;DHT22;10732;51.472;6.466;2023-02-17T09:01:33;12.00;99.90
21149;DHT22;10732;51.472;6.466;2023-02-17T09:04:00;11.90;99.90
21149;DHT22;10732;51.472;6.466;2023-02-17T09:06:37;11.90;99.90
21149;DHT22;10732;51.472;6.466;2023-02-17T09:09:04;11.90;99.90
21149;DHT22;10732;51.472;6.466;2023-02-17T09:11:30;12.00;99.90
21149;DHT22;10732;51.472;6.466;2023-02-17T09:13:56;12.00;99.90
21149;DHT22;10732;51.472;6.466;2023-02-17T09:16:22;12.00;99.90
21149;DHT22;10732;51.472;6.466;2023-02-17T09:18:50;12.00;99.90
21149;DHT22;10732;51.472;6.466;2023-02-17T09:21:15;12.00;99.90
21149;DHT22;10732;51.472;6.466;2023-02-17T09:23:42;12.00;99.90
21149;DHT22;10732;51.472;6.466;2023-02-17T09:26:10;12.00;99.90
21149;DHT22;10732;51.472;6.466;2023-02-17T09:28:36;12.10;99.90
21149;DHT22;10732;51.472;6.466;2023-02-17T09:31:17;12.00;99.90
21149;DHT22;10732;51.472;6.466;2023-02-17T09:33:44;12.20;99.90
21149;DHT22;10732;51.472;6.466;2023-02-17T09:36:12;12.20;99.90
21149;DHT22;10732;51.472;6.466;2023-02-17T09:38:39;12.30;99.90
21149;DHT22;10732;51.472;6.466;2023-02-17T09:41:23;12.40;99.90
21149;DHT22;10732;51.472;6.466;2023-02-17T09:43:51;12.40;99.90
21149;DHT22;10732;51.472;6.466;2023-02-17T09:46:28;12.30;99.90
21149;DHT22;10732;51.472;6.466;2023-02-17T09:49:02;12.30;99.90
21149;DHT22;10732;51.472;6.466;2023-02-17T09:51:38;12.30;99.90
21149;DHT22;10732;51.472;6.466;2023-02-17T09:54:26;12.30;99.90
21149;DHT22;10732;51.472;6.466;2023-02-17T09:56:54;12.30;99.90
21149;DHT22;10732;51.472;6.466;2023-02-17T09:59:34;12.30;99.90
21149;DHT22;10732;51.472;6.466;2023-02-17T10:02:06;12.40;99.90
21149;DHT22;10732;51.472;6.466;2023-02-17T10:04:40;12.40;99.90
21149;DHT22;10732;51.472;6.466;2023-02-17T10:07:28;12.40;99.90
21149;DHT22;10732;51.472;6.466;2023-02-17T10:10:30;12.60;99.90
21149;DHT22;10732;51.472;6.466;2023-02-17T10:13:00;12.80;99.90
21149;DHT22;10732;51.472;6.466;2023-02-17T10:15:30;12.80;99.90
21149;DHT22;10732;51.472;6.466;2023-02-17T10:20:40;12.80;99.90
21149;DHT22;10732;51.472;6.466;2023-02-17T10:23:14;12.70;99.90
21149;DHT22;10732;51.472;6.466;2023-02-17T10:28:21;12.60;99.90
21149;DHT22;10732;51.472;6.466;2023-02-17T10:31:03;12.60;99.90
21149;DHT22;10732;51.472;6.466;2023-02-17T10:33:37;12.50;99.90
21149;DHT22;10732;51.472;6.466;2023-02-17T10:41:36;12.80;99.90
21149;DHT22;10732;51.472;6.466;2023-02-17T10:44:10;13.00;99.90
21149;DHT22;10732;51.472;6.466;2023-02-17T10:46:39;13.10;99.90
21149;DHT22;10732;51.472;6.466;2023-02-17T10:49:17;13.20;99.90
21149;DHT22;10732;51.472;6.466;2023-02-17T10:51:46;13.30;99.90
21149;DHT22;10732;51.472;6.466;2023-02-17T10:54:37;13.30;99.90
21149;DHT22;10732;51.472;6.466;2023-02-17T10:57:07;13.20;99.90
21149;DHT22;10732;51.472;6.466;2023-02-17T10:59:39;13.10;99.90
21149;DHT22;10732;51.472;6.466;2023-02-17T11:02:39;13.10;99.90
21149;DHT22;10732;51.472;6.466;2023-02-17T11:05:06;13.10;99.90
21149;DHT22;10732;51.472;6.466;2023-02-17T11:07:42;13.00;99.90
21149;DHT22;10732;51.472;6.466;2023-02-17T11:12:54;13.20;99.90
21149;DHT22;10732;51.472;6.466;2023-02-17T11:15:28;13.40;99.90
21149;DHT22;10732;51.472;6.466;2023-02-17T11:17:55;13.70;99.90
21149;DHT22;10732;51.472;6.466;2023-02-17T11:23:22;14.10;99.90
21149;DHT22;10732;51.472;6.466;2023-02-17T11:26:01;14.10;99.90
21149;DHT22;10732;51.472;6.466;2023-02-17T11:28:27;14.10;99.90
21149;DHT22;10732;51.472;6.466;2023-02-17T11:30:56;14.00;99.90
21149;DHT22;10732;51.472;6.466;2023-02-17T11:33:38;14.10;99.90
21149;DHT22;10732;51.472;6.466;2023-02-17T11:36:05;14.10;99.90
21149;DHT22;10732;51.472;6.466;2023-02-17T11:41:04;13.80;99.90
21149;DHT22;10732;51.472;6.466;2023-02-17T11:43:32;13.70;99.90
21149;DHT22;10732;51.472;6.466;2023-02-17T11:51:13;13.50;99.90
21149;DHT22;10732;51.472;6.466;2023-02-17T11:54:07;13.40;99.90
21149;DHT22;10732;51.472;6.466;2023-02-17T11:56:39;13.50;99.90
21149;DHT22;10732;51.472;6.466;2023-02-17T11:59:17;13.70;99.90
21149;DHT22;10732;51.472;6.466;2023-02-17T12:02:10;13.70;99.90
21149;DHT22;10732;51.472;6.466;2023-02-17T12:07:44;13.90;99.90
21149;DHT22;10732;51.472;6.466;2023-02-17T12:13:21;14.10;99.90
21149;DHT22;10732;51.472;6.466;2023-02-17T12:15:58;14.10;99.90
21149;DHT22;10732;51.472;6.466;2023-02-17T12:26:36;14.30;99.90
21149;DHT22;10732;51.472;6.466;2023-02-17T12:29:28;14.30;99.90
21149;DHT22;10732;51.472;6.466;2023-02-17T12:35:00;14.30;99.90
21149;DHT22;10732;51.472;6.466;2023-02-17T12:37:30;14.10;99.90
21149;DHT22;10732;51.472;6.466;2023-02-17T12:40:05;14.00;99.90
21149;DHT22;10732;51.472;6.466;2023-02-17T12:42:36;14.00;99.90
21149;DHT22;10732;51.472;6.466;2023-02-17T12:45:18;14.10;99.90
21149;DHT22;10732;51.472;6.466;2023-02-17T12:47:56;14.20;99.90
21149;DHT22;10732;51.472;6.466;2023-02-17T12:50:34;14.30;99.90
21149;DHT22;10732;51.472;6.466;2023-02-17T12:53:38;14.20;99.90
21149;DHT22;10732;51.472;6.466;2023-02-17T12:58:43;14.00;99.90
21149;DHT22;10732;51.472;6.466;2023-02-17T13:01:12;14.00;99.90
21149;DHT22;10732;51.472;6.466;2023-02-17T13:03:39;14.00;99.90
21149;DHT22;10732;51.472;6.466;2023-02-17T13:09:23;14.00;99.90
21149;DHT22;10732;51.472;6.466;2023-02-17T13:11:51;14.00;99.90
21149;DHT22;10732;51.472;6.466;2023-02-17T13:14:28;14.00;99.90
21149;DHT22;10732;51.472;6.466;2023-02-17T13:16:54;14.00;99.90
21149;DHT22;10732;51.472;6.466;2023-02-17T13:19:30;14.10;99.90
21149;DHT22;10732;51.472;6.466;2023-02-17T13:21:58;14.10;99.90
21149;DHT22;10732;51.472;6.466;2023-02-17T13:24:51;14.00;99.90
21149;DHT22;10732;51.472;6.466;2023-02-17T13:32:30;14.00;99.90
21149;DHT22;10732;51.472;6.466;2023-02-17T13:35:27;14.00;99.90
21149;DHT22;10732;51.472;6.466;2023-02-17T13:37:53;13.90;99.90
21149;DHT22;10732;51.472;6.466;2023-02-17T13:42:49;13.70;99.90
21149;DHT22;10732;51.472;6.466;2023-02-17T13:47:55;13.60;99.90
21149;DHT22;10732;51.472;6.466;2023-02-17T13:52:58;13.50;99.90
21149;DHT22;10732;51.472;6.466;2023-02-17T13:55:24;13.50;99.90
21149;DHT22;10732;51.472;6.466;2023-02-17T13:57:54;13.40;99.90
21149;DHT22;10732;51.472;6.466;2023-02-17T14:00:27;13.40;99.90
21149;DHT22;10732;51.472;6.466;2023-02-17T14:03:04;13.40;99.90
21149;DHT22;10732;51.472;6.466;2023-02-17T14:05:43;13.40;99.90
21149;DHT22;10732;51.472;6.466;2023-02-17T14:08:54;13.30;99.90
21149;DHT22;10732;51.472;6.466;2023-02-17T14:11:19;13.20;99.90
21149;DHT22;10732;51.472;6.466;2023-02-17T14:13:47;13.20;99.90
21149;DHT22;10732;51.472;6.466;2023-02-17T14:16:34;13.20;99.90
21149;DHT22;10732;51.472;6.466;2023-02-17T14:19:11;13.20;99.90
21149;DHT22;10732;51.472;6.466;2023-02-17T14:22:00;13.20;99.90
21149;DHT22;10732;51.472;6.466;2023-02-17T14:24:32;13.00;99.90
21149;DHT22;10732;51.472;6.466;2023-02-17T14:27:07;12.90;99.90
21149;DHT22;10732;51.472;6.466;2023-02-17T14:29:45;12.90;99.90
21149;DHT22;10732;51.472;6.466;2023-02-17T14:32:31;12.90;99.90
21149;DHT22;10732;51.472;6.466;2023-02-17T14:37:38;12.80;99.90
21149;DHT22;10732;51.472;6.466;2023-02-17T14:40:06;12.80;99.90
21149;DHT22;10732;51.472;6.466;2023-02-17T14:42:38;12.80;99.90
21149;DHT22;10732;51.472;6.466;2023-02-17T14:45:03;12.70;99.90
21149;DHT22;10732;51.472;6.466;2023-02-17T14:47:29;12.70;99.90
21149;DHT22;10732;51.472;6.466;2023-02-17T14:49:54;12.60;99.90
21149;DHT22;10732;51.472;6.466;2023-02-17T14:52:22;12.50;99.90
21149;DHT22;10732;51.472;6.466;2023-02-17T14:54:48;12.40;99.90
21149;DHT22;10732;51.472;6.466;2023-02-17T14:57:15;12.40;99.90
21149;DHT22;10732;51.472;6.466;2023-02-17T14:59:41;12.30;99.90
21149;DHT22;10732;51.472;6.466;2023-02-17T15:02:15;12.30;99.90
21149;DHT22;10732;51.472;6.466;2023-02-17T15:04:42;12.20;99.90
21149;DHT22;10732;51.472;6.466;2023-02-17T15:07:11;12.20;99.90
21149;DHT22;10732;51.472;6.466;2023-02-17T15:09:37;12.20;99.90
21149;DHT22;10732;51.472;6.466;2023-02-17T15:12:08;12.20;99.90
21149;DHT22;10732;51.472;6.466;2023-02-17T15:14:37;12.20;99.90
21149;DHT22;10732;51.472;6.466;2023-02-17T15:17:02;12.20;99.90
21149;DHT22;10732;51.472;6.466;2023-02-17T15:19:28;12.10;99.90
21149;DHT22;10732;51.472;6.466;2023-02-17T15:21:53;12.10;99.90
21149;DHT22;10732;51.472;6.466;2023-02-17T15:24:24;12.00;99.90
21149;DHT22;10732;51.472;6.466;2023-02-17T15:26:51;12.00;99.90
21149;DHT22;10732;51.472;6.466;2023-02-17T15:29:19;12.00;99.90
21149;DHT22;10732;51.472;6.466;2023-02-17T15:31:45;12.10;99.90
21149;DHT22;10732;51.472;6.466;2023-02-17T15:34:17;12.10;99.90
21149;DHT22;10732;51.472;6.466;2023-02-17T15:36:44;12.20;99.90
21149;DHT22;10732;51.472;6.466;2023-02-17T15:39:11;12.20;99.90
21149;DHT22;10732;51.472;6.466;2023-02-17T15:41:37;12.20;99.90
21149;DHT22;10732;51.472;6.466;2023-02-17T15:44:04;12.20;99.90
21149;DHT22;10732;51.472;6.466;2023-02-17T15:46:32;12.20;99.90
21149;DHT22;10732;51.472;6.466;2023-02-17T15:48:58;12.20;99.90
21149;DHT22;10732;51.472;6.466;2023-02-17T15:51:24;12.10;99.90
21149;DHT22;10732;51.472;6.466;2023-02-17T15:53:50;12.10;99.90
21149;DHT22;10732;51.472;6.466;2023-02-17T15:56:17;12.10;99.90
21149;DHT22;10732;51.472;6.466;2023-02-17T15:58:43;12.10;99.90
21149;DHT22;10732;51.472;6.466;2023-02-17T16:01:29;12.20;99.90
21149;DHT22;10732;51.472;6.466;2023-02-17T16:03:56;12.20;99.90
21149;DHT22;10732;51.472;6.466;2023-02-17T16:06:23;12.20;99.90
21149;DHT22;10732;51.472;6.466;2023-02-17T16:08:49;12.20;99.90
21149;DHT22;10732;51.472;6.466;2023-02-17T16:11:15;12.20;99.90
21149;DHT22;10732;51.472;6.466;2023-02-17T16:13:43;12.20;99.90
21149;DHT22;10732;51.472;6.466;2023-02-17T16:16:30;12.30;99.90
21149;DHT22;10732;51.472;6.466;2023-02-17T16:19:00;12.30;99.90
21149;DHT22;10732;51.472;6.466;2023-02-17T16:21:26;12.20;99.90
21149;DHT22;10732;51.472;6.466;2023-02-17T16:23:52;12.10;99.90
21149;DHT22;10732;51.472;6.466;2023-02-17T16:26:34;12.10;99.90
21149;DHT22;10732;51.472;6.466;2023-02-17T16:29:02;12.10;99.90
21149;DHT22;10732;51.472;6.466;2023-02-17T16:31:28;12.00;99.90
21149;DHT22;10732;51.472;6.466;2023-02-17T16:33:56;12.00;99.90
21149;DHT22;10732;51.472;6.466;2023-02-17T16:36:25;12.00;99.90
21149;DHT22;10732;51.472;6.466;2023-02-17T16:38:50;11.90;99.90
21149;DHT22;10732;51.472;6.466;2023-02-17T16:41:18;11.90;99.90
21149;DHT22;10732;51.472;6.466;2023-02-17T16:43:44;11.90;99.90
21149;DHT22;10732;51.472;6.466;2023-02-17T16:46:30;11.90;99.90
21149;DHT22;10732;51.472;6.466;2023-02-17T16:48:57;11.80;99.90
21149;DHT22;10732;51.472;6.466;2023-02-17T16:51:24;11.80;99.90
21149;DHT22;10732;51.472;6.466;2023-02-17T16:53:49;11.80;99.90
21149;DHT22;10732;51.472;6.466;2023-02-17T16:56:29;11.80;99.90
21149;DHT22;10732;51.472;6.466;2023-02-17T16:58:58;11.70;99.90
21149;DHT22;10732;51.472;6.466;2023-02-17T17:01:24;11.80;99.90
21149;DHT22;10732;51.472;6.466;2023-02-17T17:03:49;11.80;99.90
21149;DHT22;10732;51.472;6.466;2023-02-17T17:06:22;11.80;99.90
21149;DHT22;10732;51.472;6.466;2023-02-17T17:08:48;11.80;99.90